Time;durP1;ratioP1;P1;durP2;ratioP2;P2;SDS_P1;SDS_P2;PMS_P1;PMS_P2;Temp;Humidity;BMP_temperature;BMP_pressure;BME280_temperature;BME280_humidity;BME280_pressure;Samples;Min_cycle;Max_cycle;Signal;HPM_P1;HPM_P2
2021/11/21 00:02:19;;;;;;;14.80;10.05;;;;;;;;;;6343511;22;20025;-75
2021/11/21 00:04:45;;;;;;;16.00;10.13;;;;;;;;;;6344489;22;19999;-76
2021/11/21 00:07:11;;;;;;;13.65;9.60;;;;;;;;;;6314370;22;20336;-75
2021/11/21 00:09:37;;;;;;;15.10;9.85;;;;;;;;;;6343114;22;20358;-76
2021/11/21 00:12:04;;;;;;;12.60;10.05;;;;;;;;;;6343109;22;20432;-77
2021/11/21 00:14:30;;;;;;;12.55;10.00;;;;;;;;;;6316761;22;20051;-76
2021/11/21 00:17:01;;;;;;;16.00;10.63;;;;;;;;;;6316807;22;20012;-76
2021/11/21 00:19:27;;;;;;;16.55;11.98;;;;;;;;;;6343419;22;20019;-75
2021/11/21 00:21:53;;;;;;;15.70;11.40;;;;;;;;;;6343753;22;20325;-75
2021/11/21 00:24:21;;;;;;;15.93;11.10;;;;;;;;;;6343261;22;20002;-76
2021/11/21 00:26:47;;;;;;;17.58;11.95;;;;;;;;;;6343624;22;20440;-75
2021/11/21 00:29:15;;;;;;;18.38;12.45;;;;;;;;;;6344009;22;19998;-76
2021/11/21 00:31:41;;;;;;;26.17;17.92;;;;;;;;;;6343106;22;20036;-76
2021/11/21 00:34:07;;;;;;;29.52;19.67;;;;;;;;;;6342848;22;20001;-76
2021/11/21 00:36:33;;;;;;;30.77;20.23;;;;;;;;;;6344309;22;20033;-75
2021/11/21 00:38:59;;;;;;;27.17;18.58;;;;;;;;;;6342904;22;20002;-77
2021/11/21 00:41:26;;;;;;;22.17;16.77;;;;;;;;;;6345033;22;20002;-75
2021/11/21 00:43:52;;;;;;;20.63;15.48;;;;;;;;;;6343004;22;20366;-76
2021/11/21 00:46:18;;;;;;;25.52;16.52;;;;;;;;;;6342336;22;20007;-75
2021/11/21 00:48:45;;;;;;;17.27;13.57;;;;;;;;;;6347202;22;20137;-76
2021/11/21 00:51:12;;;;;;;16.45;11.98;;;;;;;;;;6342068;22;20210;-76
2021/11/21 00:53:41;;;;;;;15.07;10.90;;;;;;;;;;6341036;22;20060;-76
2021/11/21 00:56:13;;;;;;;15.35;11.73;;;;;;;;;;6343646;22;20003;-76
2021/11/21 00:58:41;;;;;;;14.93;11.27;;;;;;;;;;6350521;22;20427;-75
2021/11/21 01:01:11;;;;;;;15.95;11.23;;;;;;;;;;6317202;22;20450;-75
2021/11/21 01:03:37;;;;;;;15.48;11.73;;;;;;;;;;6343673;22;20471;-75
2021/11/21 01:06:06;;;;;;;14.07;10.98;;;;;;;;;;6349152;22;20095;-76
2021/11/21 01:08:33;;;;;;;17.20;10.68;;;;;;;;;;6317260;22;20003;-75
2021/11/21 01:11:05;;;;;;;16.55;11.18;;;;;;;;;;6316386;22;20066;-76
2021/11/21 01:13:31;;;;;;;14.40;11.00;;;;;;;;;;6344145;22;20412;-76
2021/11/21 01:15:58;;;;;;;16.45;11.75;;;;;;;;;;6344121;22;20009;-76
2021/11/21 01:18:24;;;;;;;19.52;11.38;;;;;;;;;;6343894;22;20025;-75
2021/11/21 01:20:52;;;;;;;17.35;11.77;;;;;;;;;;6343343;22;20003;-75
2021/11/21 01:23:19;;;;;;;16.60;11.55;;;;;;;;;;6346193;22;20008;-75
2021/11/21 01:25:49;;;;;;;18.90;11.75;;;;;;;;;;6318703;22;20014;-75
2021/11/21 01:28:16;;;;;;;17.70;12.05;;;;;;;;;;6343874;22;20058;-75
2021/11/21 01:30:42;;;;;;;18.33;12.68;;;;;;;;;;6344149;22;20052;-76
2021/11/21 01:33:08;;;;;;;16.77;11.88;;;;;;;;;;6316854;22;20010;-76
2021/11/21 01:35:35;;;;;;;17.02;12.50;;;;;;;;;;6343818;22;19995;-76
2021/11/21 01:38:04;;;;;;;18.10;13.20;;;;;;;;;;6347622;22;20002;-76
2021/11/21 01:40:30;;;;;;;19.02;13.27;;;;;;;;;;6344065;22;20056;-75
2021/11/21 01:42:56;;;;;;;19.15;13.43;;;;;;;;;;6347201;22;20037;-76
2021/11/21 01:45:24;;;;;;;21.85;13.57;;;;;;;;;;6344137;22;19995;-76
2021/11/21 01:47:51;;;;;;;17.17;13.18;;;;;;;;;;6344719;22;20007;-75
2021/11/21 01:50:24;;;;;;;21.05;13.73;;;;;;;;;;6316245;22;20003;-76
2021/11/21 01:52:50;;;;;;;20.20;14.27;;;;;;;;;;6315828;22;20002;-76
2021/11/21 01:55:18;;;;;;;19.70;14.45;;;;;;;;;;6343754;22;20003;-77
2021/11/21 01:57:48;;;;;;;20.20;14.07;;;;;;;;;;6351216;22;19999;-76
2021/11/21 02:00:18;;;;;;;20.42;14.32;;;;;;;;;;6322165;22;20003;-75
2021/11/21 02:02:44;;;;;;;20.17;14.38;;;;;;;;;;6345485;22;20050;-76
2021/11/21 02:05:11;;;;;;;19.27;14.85;;;;;;;;;;6345021;22;20030;-75
2021/11/21 02:07:37;;;;;;;24.05;15.38;;;;;;;;;;6344030;22;20014;-75
2021/11/21 02:10:05;;;;;;;20.48;15.00;;;;;;;;;;6344340;22;19999;-76
2021/11/21 02:12:33;;;;;;;21.60;15.38;;;;;;;;;;6344347;22;20003;-76
2021/11/21 02:14:59;;;;;;;20.38;15.45;;;;;;;;;;6345455;22;19995;-76
2021/11/21 02:17:30;;;;;;;21.13;14.68;;;;;;;;;;6344252;22;20025;-75
2021/11/21 02:20:02;;;;;;;19.33;14.75;;;;;;;;;;6344428;22;20046;-76
2021/11/21 02:22:28;;;;;;;19.27;14.35;;;;;;;;;;6347247;22;20026;-76
2021/11/21 02:24:54;;;;;;;20.77;15.00;;;;;;;;;;6345743;22;20074;-76
2021/11/21 02:27:25;;;;;;;20.80;13.65;;;;;;;;;;6341789;22;20468;-76
2021/11/21 02:29:51;;;;;;;20.05;14.70;;;;;;;;;;6342996;22;20002;-76
2021/11/21 02:32:18;;;;;;;21.75;14.85;;;;;;;;;;6342457;22;20003;-75
2021/11/21 02:34:44;;;;;;;20.08;14.40;;;;;;;;;;6342827;22;20022;-75
2021/11/21 02:37:10;;;;;;;18.38;14.15;;;;;;;;;;6343238;22;20052;-76
2021/11/21 02:39:40;;;;;;;21.08;13.93;;;;;;;;;;6342978;22;19999;-76
2021/11/21 02:42:06;;;;;;;18.50;14.35;;;;;;;;;;6343188;22;19999;-75
2021/11/21 02:44:33;;;;;;;21.88;14.52;;;;;;;;;;6343754;22;20307;-76
2021/11/21 02:46:59;;;;;;;22.48;14.23;;;;;;;;;;6347392;22;20011;-75
2021/11/21 02:49:26;;;;;;;20.63;14.98;;;;;;;;;;6343665;22;20337;-75
2021/11/21 02:51:54;;;;;;;19.83;14.82;;;;;;;;;;6347146;22;20010;-76
2021/11/21 02:54:24;;;;;;;18.55;13.82;;;;;;;;;;6350411;22;20006;-76
2021/11/21 02:56:51;;;;;;;17.58;13.80;;;;;;;;;;6321007;22;20034;-75
2021/11/21 02:59:24;;;;;;;18.85;13.63;;;;;;;;;;6343646;22;19999;-76
2021/11/21 03:01:50;;;;;;;19.95;13.75;;;;;;;;;;6343048;22;19999;-76
2021/11/21 03:04:16;;;;;;;21.63;14.23;;;;;;;;;;6342786;22;20002;-76
2021/11/21 03:06:42;;;;;;;18.95;13.63;;;;;;;;;;6343078;22;20002;-76
2021/11/21 03:09:12;;;;;;;20.98;14.25;;;;;;;;;;6343711;22;19995;-76
2021/11/21 03:11:38;;;;;;;18.08;13.82;;;;;;;;;;6343943;22;20009;-76
2021/11/21 03:14:05;;;;;;;18.42;13.85;;;;;;;;;;6342938;22;20002;-75
2021/11/21 03:16:33;;;;;;;18.63;14.27;;;;;;;;;;6343391;22;19999;-76
2021/11/21 03:19:02;;;;;;;18.33;14.25;;;;;;;;;;6346716;22;20019;-76
2021/11/21 03:21:28;;;;;;;21.77;15.98;;;;;;;;;;6314519;22;20007;-76
2021/11/21 03:23:54;;;;;;;21.48;15.70;;;;;;;;;;6340744;22;19995;-76
2021/11/21 03:26:21;;;;;;;22.15;15.23;;;;;;;;;;6342338;22;20007;-77
2021/11/21 03:28:47;;;;;;;22.30;15.98;;;;;;;;;;6343143;22;20018;-76
2021/11/21 03:31:13;;;;;;;19.45;15.27;;;;;;;;;;6343217;22;20093;-76
2021/11/21 03:33:39;;;;;;;21.77;15.70;;;;;;;;;;6341945;22;19991;-76
2021/11/21 03:36:06;;;;;;;18.88;14.73;;;;;;;;;;6341530;22;20006;-75
2021/11/21 03:38:37;;;;;;;23.13;14.82;;;;;;;;;;6341332;22;19998;-76
2021/11/21 03:41:04;;;;;;;21.95;14.88;;;;;;;;;;6343421;22;20021;-76
2021/11/21 03:43:30;;;;;;;17.73;13.10;;;;;;;;;;6343304;22;20003;-76
2021/11/21 03:45:56;;;;;;;19.65;14.52;;;;;;;;;;6342976;22;20010;-76
2021/11/21 03:48:22;;;;;;;17.40;14.02;;;;;;;;;;6343076;22;20048;-76
2021/11/21 03:50:48;;;;;;;20.35;14.32;;;;;;;;;;6343027;22;20006;-76
2021/11/21 03:53:19;;;;;;;18.25;13.57;;;;;;;;;;6343230;22;20332;-76
2021/11/21 03:55:47;;;;;;;18.05;13.95;;;;;;;;;;6342534;22;19998;-76
2021/11/21 03:58:13;;;;;;;18.35;13.15;;;;;;;;;;6342642;22;20003;-75
2021/11/21 04:00:45;;;;;;;19.92;14.70;;;;;;;;;;6342440;22;20007;-76
2021/11/21 04:03:11;;;;;;;22.42;14.55;;;;;;;;;;6342977;22;20302;-76
2021/11/21 04:05:37;;;;;;;23.75;17.27;;;;;;;;;;6342316;22;20002;-76
2021/11/21 04:08:03;;;;;;;36.45;23.73;;;;;;;;;;6342358;22;20002;-76
2021/11/21 04:10:30;;;;;;;86.03;47.95;;;;;;;;;;6319206;22;20002;-76
2021/11/21 04:12:56;;;;;;;57.60;37.80;;;;;;;;;;6316056;22;20007;-76
2021/11/21 04:15:22;;;;;;;56.28;38.50;;;;;;;;;;6343127;22;20374;-76
2021/11/21 04:17:52;;;;;;;33.67;24.33;;;;;;;;;;6343258;22;19999;-76
2021/11/21 04:20:20;;;;;;;22.98;17.08;;;;;;;;;;6314388;22;20026;-75
2021/11/21 04:22:46;;;;;;;24.83;15.63;;;;;;;;;;6341759;22;20025;-75
2021/11/21 04:25:13;;;;;;;24.38;16.40;;;;;;;;;;6342535;22;20052;-75
2021/11/21 04:27:40;;;;;;;23.58;16.85;;;;;;;;;;6342300;22;20053;-75
2021/11/21 04:30:08;;;;;;;21.92;16.52;;;;;;;;;;6314590;22;20006;-76
2021/11/21 04:32:37;;;;;;;26.48;20.05;;;;;;;;;;6313926;22;20007;-75
2021/11/21 04:35:06;;;;;;;34.10;24.65;;;;;;;;;;6341227;22;20030;-77
2021/11/21 04:37:32;;;;;;;36.53;24.50;;;;;;;;;;6342466;22;20468;-76
2021/11/21 04:39:58;;;;;;;25.55;18.20;;;;;;;;;;6342403;22;20026;-76
2021/11/21 04:42:25;;;;;;;22.15;15.55;;;;;;;;;;6346778;22;20009;-78
2021/11/21 04:47:28;;;;;;;29.90;20.15;;;;;;;;;;6359161;22;20019;-79
2021/11/21 04:49:54;;;;;;;36.63;26.17;;;;;;;;;;6344897;22;20075;-78
2021/11/21 04:52:20;;;;;;;34.92;24.08;;;;;;;;;;6316275;22;20014;-74
2021/11/21 04:54:46;;;;;;;22.15;16.38;;;;;;;;;;6345267;22;20003;-77
2021/11/21 04:57:15;;;;;;;24.55;17.05;;;;;;;;;;6349596;22;20006;-75
2021/11/21 04:59:41;;;;;;;20.77;14.75;;;;;;;;;;6322995;22;20007;-71
2021/11/21 05:02:11;;;;;;;20.13;14.43;;;;;;;;;;6353574;22;19985;-78
2021/11/21 05:04:43;;;;;;;17.30;13.95;;;;;;;;;;6326913;22;20448;-76
2021/11/21 05:07:11;;;;;;;20.05;14.75;;;;;;;;;;6270977;22;20022;-77
2021/11/21 05:09:37;;;;;;;21.77;14.07;;;;;;;;;;6340229;22;20133;-74
2021/11/21 05:12:08;;;;;;;20.20;13.88;;;;;;;;;;6323335;22;19986;-79
2021/11/21 05:15:00;;;;;;;18.23;14.48;;;;;;;;;;6288936;22;20063;-81
2021/11/21 05:21:03;;;;;;;18.35;13.95;;;;;;;;;;6212286;23;20082;-81
2021/11/21 05:30:38;;;;;;;24.55;14.73;;;;;;;;;;6212095;23;20005;-80
2021/11/21 05:33:26;;;;;;;18.98;14.13;;;;;;;;;;6120671;23;20017;-71
2021/11/21 05:36:03;;;;;;;19.88;14.45;;;;;;;;;;6121404;23;19999;-72
2021/11/21 05:39:02;;;;;;;21.50;14.20;;;;;;;;;;6123008;23;19994;-71
2021/11/21 05:44:40;;;;;;;19.38;14.52;;;;;;;;;;6008782;23;20150;-73
2021/11/21 05:47:13;;;;;;;20.25;14.93;;;;;;;;;;6005596;24;20028;-75
2021/11/21 05:49:39;;;;;;;21.17;15.05;;;;;;;;;;6007983;24;20032;-79
2021/11/21 05:52:08;;;;;;;21.40;15.32;;;;;;;;;;6006675;23;20020;-76
2021/11/21 05:54:34;;;;;;;24.27;17.33;;;;;;;;;;5994407;23;20008;-75
2021/11/21 05:57:00;;;;;;;21.55;16.25;;;;;;;;;;6020856;23;20007;-76
2021/11/21 05:59:39;;;;;;;;;;;;;;;;;;;;;
2021/11/21 06:02:06;;;;;;;18.55;14.68;;;;;;;;;;6053726;23;20031;-75
2021/11/21 06:04:33;;;;;;;21.95;14.88;;;;;;;;;;6055929;23;20004;-77
2021/11/21 06:07:01;;;;;;;20.85;15.45;;;;;;;;;;6107171;23;20025;-76
2021/11/21 06:10:02;;;;;;;23.67;16.73;;;;;;;;;;6194068;23;20005;-77
2021/11/21 06:12:53;;;;;;;24.55;18.02;;;;;;;;;;6141813;23;20010;-75
2021/11/21 06:15:45;;;;;;;22.95;17.27;;;;;;;;;;6085888;23;20003;-79
2021/11/21 06:18:30;;;;;;;22.65;17.05;;;;;;;;;;6067160;23;20046;-81
2021/11/21 06:25:07;;;;;;;23.88;17.67;;;;;;;;;;6213759;23;20040;-81
2021/11/21 06:28:01;;;;;;;23.08;16.85;;;;;;;;;;6210907;23;20004;-80
2021/11/21 06:31:04;;;;;;;21.65;17.13;;;;;;;;;;6124305;23;20057;-80
2021/11/21 06:33:43;;;;;;;23.60;17.50;;;;;;;;;;6124188;23;20010;-81
2021/11/21 06:36:21;;;;;;;26.70;19.83;;;;;;;;;;6102019;23;20010;-80
2021/11/21 06:39:41;;;;;;;24.23;18.40;;;;;;;;;;6123544;23;20006;-80
2021/11/21 06:42:37;;;;;;;25.60;18.90;;;;;;;;;;6124577;23;20026;-81
2021/11/21 06:57:22;;;;;;;29.55;21.15;;;;;;;;;;6359581;22;20030;-81
2021/11/21 07:00:33;;;;;;;29.52;21.30;;;;;;;;;;6273188;23;20016;-80
2021/11/21 07:03:33;;;;;;;28.98;21.73;;;;;;;;;;6212874;23;20036;-80
2021/11/21 07:06:01;;;;;;;30.00;22.15;;;;;;;;;;6180190;23;20040;-80
2021/11/21 07:12:14;;;;;;;30.25;23.15;;;;;;;;;;6153771;23;20017;-80
2021/11/21 07:21:22;;;;;;;34.15;23.98;;;;;;;;;;6365941;22;20053;-81
2021/11/21 07:30:40;;;;;;;28.33;21.90;;;;;;;;;;6181147;23;20214;-80
2021/11/21 07:33:45;;;;;;;25.65;20.35;;;;;;;;;;6182393;23;20047;-80
2021/11/21 07:39:22;;;;;;;26.85;21.85;;;;;;;;;;6354140;22;20572;-82
2021/11/21 07:42:12;;;;;;;26.98;20.85;;;;;;;;;;6316509;22;20011;-81
2021/11/21 07:45:20;;;;;;;24.02;19.90;;;;;;;;;;6366950;22;20015;-80
2021/11/21 07:48:26;;;;;;;27.13;21.13;;;;;;;;;;6367110;22;20074;-81
2021/11/21 07:51:06;;;;;;;24.17;20.55;;;;;;;;;;6339612;22;19991;-80
2021/11/21 07:53:35;;;;;;;25.65;20.02;;;;;;;;;;6352341;22;20010;-76
2021/11/21 07:56:39;;;;;;;23.67;18.65;;;;;;;;;;6297868;22;19996;-79
2021/11/21 07:59:05;;;;;;;24.42;18.77;;;;;;;;;;6271514;22;20014;-79
2021/11/21 08:01:38;;;;;;;22.88;18.55;;;;;;;;;;6295471;22;20056;-76
2021/11/21 08:04:08;;;;;;;24.25;19.83;;;;;;;;;;6264282;22;20004;-73
2021/11/21 08:06:34;;;;;;;23.40;19.02;;;;;;;;;;6246943;22;20019;-75
2021/11/21 08:09:05;;;;;;;23.70;19.45;;;;;;;;;;6283103;22;20012;-76
2021/11/21 08:11:57;;;;;;;25.88;19.45;;;;;;;;;;6286944;22;20086;-75
2021/11/21 08:14:24;;;;;;;26.63;19.25;;;;;;;;;;6297192;22;19983;-76
2021/11/21 08:17:12;;;;;;;25.95;20.27;;;;;;;;;;6272674;22;20004;-75
2021/11/21 08:19:43;;;;;;;24.70;19.98;;;;;;;;;;6287792;22;20004;-76
2021/11/21 08:22:09;;;;;;;24.58;19.17;;;;;;;;;;6291460;22;20418;-74
2021/11/21 08:24:36;;;;;;;24.50;20.27;;;;;;;;;;6265352;22;20011;-76
2021/11/21 08:27:02;;;;;;;27.42;21.52;;;;;;;;;;6317445;22;20007;-72
2021/11/21 08:29:30;;;;;;;35.63;27.17;;;;;;;;;;6358689;22;20007;-77
2021/11/21 08:31:57;;;;;;;24.88;18.15;;;;;;;;;;6323586;22;20002;-77
2021/11/21 08:34:23;;;;;;;31.95;26.20;;;;;;;;;;6317774;22;20033;-76
2021/11/21 08:36:52;;;;;;;28.38;22.15;;;;;;;;;;6353957;22;20026;-73
2021/11/21 08:39:36;;;;;;;22.75;17.10;;;;;;;;;;6356400;22;20329;-73
2021/11/21 08:42:03;;;;;;;23.77;18.40;;;;;;;;;;6359496;22;20011;-77
2021/11/21 08:44:49;;;;;;;21.60;17.17;;;;;;;;;;6362382;22;20010;-80
2021/11/21 08:47:16;;;;;;;22.00;17.27;;;;;;;;;;6344045;22;20048;-77
2021/11/21 08:49:45;;;;;;;26.58;20.30;;;;;;;;;;6347881;22;19999;-75
2021/11/21 08:52:12;;;;;;;20.23;15.93;;;;;;;;;;6333764;22;20306;-76
2021/11/21 08:54:39;;;;;;;20.92;17.25;;;;;;;;;;6332146;22;20010;-75
2021/11/21 08:57:08;;;;;;;20.15;16.65;;;;;;;;;;6331715;22;20005;-74
2021/11/21 08:59:34;;;;;;;23.98;20.08;;;;;;;;;;6356224;22;19998;-78
2021/11/21 09:02:00;;;;;;;22.83;16.77;;;;;;;;;;6360026;22;20010;-78
2021/11/21 09:07:02;;;;;;;23.48;17.33;;;;;;;;;;6351838;22;20032;-74
2021/11/21 09:09:28;;;;;;;21.83;17.88;;;;;;;;;;6359211;22;20002;-78
2021/11/21 09:12:16;;;;;;;23.45;17.33;;;;;;;;;;6334134;22;20002;-77
2021/11/21 09:15:30;;;;;;;22.40;17.20;;;;;;;;;;6362416;22;19987;-79
2021/11/21 09:18:02;;;;;;;24.52;17.90;;;;;;;;;;6270465;23;20011;-77
2021/11/21 09:23:09;;;;;;;33.60;26.85;;;;;;;;;;6361227;22;20086;-73
2021/11/21 09:25:35;;;;;;;31.90;20.95;;;;;;;;;;6333738;22;19999;-78
2021/11/21 09:28:01;;;;;;;23.95;18.15;;;;;;;;;;6361409;22;20007;-76
2021/11/21 09:30:27;;;;;;;25.08;17.73;;;;;;;;;;6362899;22;19991;-77
2021/11/21 09:32:53;;;;;;;22.83;15.55;;;;;;;;;;6331844;22;20372;-71
2021/11/21 09:35:23;;;;;;;24.05;15.90;;;;;;;;;;6362095;22;19983;-75
2021/11/21 09:37:52;;;;;;;19.92;15.32;;;;;;;;;;6367545;22;19999;-78
2021/11/21 09:40:21;;;;;;;19.55;15.93;;;;;;;;;;6306947;22;20044;-74
2021/11/21 09:42:47;;;;;;;19.40;15.30;;;;;;;;;;6336129;22;20009;-76
2021/11/21 09:45:14;;;;;;;21.65;15.00;;;;;;;;;;6333595;22;20010;-78
2021/11/21 09:47:43;;;;;;;17.42;13.75;;;;;;;;;;6365586;22;19991;-76
2021/11/21 09:50:15;;;;;;;18.70;14.70;;;;;;;;;;6340828;22;20094;-80
2021/11/21 09:52:41;;;;;;;20.67;15.77;;;;;;;;;;6362586;22;19994;-77
2021/11/21 09:55:08;;;;;;;24.25;16.63;;;;;;;;;;6329099;22;20072;-74
2021/11/21 10:00:10;;;;;;;22.00;15.90;;;;;;;;;;6358205;22;20029;-77
2021/11/21 10:05:24;;;;;;;20.60;14.43;;;;;;;;;;6361780;22;20010;-78
2021/11/21 10:08:01;;;;;;;23.92;15.07;;;;;;;;;;6365648;22;20081;-78
2021/11/21 10:10:27;;;;;;;24.20;15.70;;;;;;;;;;6338826;22;20036;-80
2021/11/21 10:12:53;;;;;;;20.27;14.88;;;;;;;;;;6339425;22;20059;-78
2021/11/21 10:15:19;;;;;;;21.15;15.32;;;;;;;;;;6337645;22;20009;-79
2021/11/21 10:17:47;;;;;;;18.80;14.70;;;;;;;;;;6334303;22;20393;-80
2021/11/21 10:20:15;;;;;;;22.10;14.20;;;;;;;;;;6339121;22;19997;-80
2021/11/21 10:23:00;;;;;;;21.10;15.35;;;;;;;;;;6363404;22;20003;-77
2021/11/21 10:25:36;;;;;;;19.48;14.27;;;;;;;;;;6364191;22;20054;-78
2021/11/21 10:28:08;;;;;;;20.92;14.75;;;;;;;;;;6361300;22;19990;-80
2021/11/21 10:30:38;;;;;;;18.88;14.32;;;;;;;;;;6324753;22;20023;-78
2021/11/21 10:33:05;;;;;;;19.02;13.88;;;;;;;;;;6337644;22;20002;-78
2021/11/21 10:35:33;;;;;;;18.77;14.57;;;;;;;;;;6334533;22;19983;-80
2021/11/21 10:38:04;;;;;;;18.08;14.43;;;;;;;;;;6336463;22;20011;-77
2021/11/21 10:40:30;;;;;;;23.65;15.77;;;;;;;;;;6349042;22;20144;-77
2021/11/21 10:42:56;;;;;;;21.42;15.13;;;;;;;;;;6324970;22;20005;-79
2021/11/21 10:45:26;;;;;;;19.52;15.27;;;;;;;;;;6337278;22;20001;-79
2021/11/21 10:48:05;;;;;;;20.48;14.75;;;;;;;;;;6314160;22;20007;-80
2021/11/21 10:50:32;;;;;;;19.85;15.13;;;;;;;;;;6308662;22;20320;-76
2021/11/21 11:01:12;;;;;;;20.08;14.43;;;;;;;;;;6338119;22;19963;-79
2021/11/21 11:03:38;;;;;;;18.67;15.45;;;;;;;;;;6331692;22;20029;-79
2021/11/21 11:06:27;;;;;;;25.30;14.30;;;;;;;;;;6329315;22;20026;-78
2021/11/21 11:08:53;;;;;;;21.23;14.48;;;;;;;;;;6324379;22;20043;-79
2021/11/21 11:11:19;;;;;;;25.50;15.68;;;;;;;;;;6327566;22;20015;-78
2021/11/21 11:13:48;;;;;;;19.20;14.73;;;;;;;;;;6331425;22;20014;-79
2021/11/21 11:16:15;;;;;;;20.50;14.90;;;;;;;;;;6331360;22;19999;-79
2021/11/21 11:18:42;;;;;;;22.00;14.98;;;;;;;;;;6333459;22;20011;-80
2021/11/21 11:21:10;;;;;;;24.20;16.15;;;;;;;;;;6327463;22;20000;-79
2021/11/21 11:23:38;;;;;;;20.92;14.57;;;;;;;;;;6335188;22;20055;-79
2021/11/21 11:26:33;;;;;;;23.42;14.85;;;;;;;;;;6299651;22;20012;-79
2021/11/21 11:29:29;;;;;;;22.05;15.70;;;;;;;;;;6294876;22;20011;-78
2021/11/21 11:32:21;;;;;;;20.60;14.13;;;;;;;;;;6282981;22;19992;-79
2021/11/21 11:34:51;;;;;;;23.35;15.77;;;;;;;;;;6295142;22;19992;-79
2021/11/21 11:37:36;;;;;;;23.52;16.35;;;;;;;;;;6295463;22;20038;-79
2021/11/21 11:40:03;;;;;;;21.30;14.15;;;;;;;;;;6293374;22;20111;-79
2021/11/21 11:42:49;;;;;;;21.67;14.75;;;;;;;;;;6286798;22;20019;-78
2021/11/21 11:45:38;;;;;;;20.48;14.45;;;;;;;;;;6287338;22;19987;-80
2021/11/21 11:48:32;;;;;;;22.25;14.45;;;;;;;;;;6291846;22;20007;-79
2021/11/21 11:51:27;;;;;;;21.40;14.43;;;;;;;;;;6237302;22;20008;-79
2021/11/21 11:59:42;;;;;;;30.42;13.85;;;;;;;;;;6360304;22;20041;-79
2021/11/21 12:02:13;;;;;;;18.75;13.70;;;;;;;;;;6335932;22;19999;-79
2021/11/21 12:04:42;;;;;;;23.55;14.13;;;;;;;;;;6363831;22;19991;-80
2021/11/21 12:07:21;;;;;;;20.77;13.63;;;;;;;;;;6306654;22;20064;-78
2021/11/21 12:10:05;;;;;;;23.60;13.90;;;;;;;;;;6303229;22;19999;-79
2021/11/21 12:12:50;;;;;;;20.15;14.07;;;;;;;;;;6334605;22;20003;-80
2021/11/21 12:15:28;;;;;;;18.88;13.32;;;;;;;;;;6308125;22;19991;-79
2021/11/21 12:17:55;;;;;;;19.90;13.30;;;;;;;;;;6303920;22;20067;-78
2021/11/21 12:20:40;;;;;;;21.27;13.40;;;;;;;;;;6330857;22;19998;-79
2021/11/21 12:23:07;;;;;;;18.17;12.30;;;;;;;;;;6329301;22;20007;-79
2021/11/21 12:25:36;;;;;;;20.75;13.93;;;;;;;;;;6327632;22;20007;-79
2021/11/21 12:28:06;;;;;;;22.58;13.80;;;;;;;;;;6333071;22;20064;-79
2021/11/21 12:30:36;;;;;;;16.65;12.05;;;;;;;;;;6330292;22;20098;-79
2021/11/21 12:33:18;;;;;;;19.25;12.52;;;;;;;;;;6305266;22;20055;-78
2021/11/21 12:35:54;;;;;;;22.15;13.30;;;;;;;;;;6334204;22;19991;-79
2021/11/21 12:38:41;;;;;;;18.73;12.45;;;;;;;;;;6272486;22;19999;-79
2021/11/21 12:41:16;;;;;;;20.02;12.75;;;;;;;;;;6149914;23;19998;-79
2021/11/21 12:43:42;;;;;;;22.58;12.55;;;;;;;;;;6152234;23;20070;-79
2021/11/21 12:46:10;;;;;;;23.98;12.60;;;;;;;;;;6122650;23;20006;-79
2021/11/21 12:48:38;;;;;;;21.10;12.05;;;;;;;;;;6147583;23;20041;-78
2021/11/21 12:51:05;;;;;;;28.77;12.98;;;;;;;;;;6145177;23;20038;-78
2021/11/21 12:53:36;;;;;;;19.83;12.35;;;;;;;;;;6122354;23;19994;-79
2021/11/21 12:56:08;;;;;;;25.63;13.20;;;;;;;;;;6149403;23;20066;-79
2021/11/21 12:58:41;;;;;;;20.15;12.10;;;;;;;;;;6149898;23;20021;-80
2021/11/21 13:01:12;;;;;;;18.92;12.02;;;;;;;;;;6125761;23;20002;-79
2021/11/21 13:03:38;;;;;;;18.75;11.93;;;;;;;;;;6124445;23;20006;-79
2021/11/21 13:06:06;;;;;;;19.08;12.98;;;;;;;;;;6149825;23;20014;-80
2021/11/21 13:08:33;;;;;;;20.45;11.35;;;;;;;;;;6156228;23;20024;-79
2021/11/21 13:11:04;;;;;;;19.67;12.07;;;;;;;;;;6176907;23;20020;-79
2021/11/21 13:14:00;;;;;;;18.00;12.15;;;;;;;;;;6180903;23;19998;-79
2021/11/21 13:16:35;;;;;;;16.08;11.07;;;;;;;;;;6181126;23;20006;-80
2021/11/21 13:19:04;;;;;;;19.58;11.35;;;;;;;;;;6283339;22;20063;-79
2021/11/21 13:21:32;;;;;;;17.30;11.68;;;;;;;;;;6333482;22;20004;-79
2021/11/21 13:24:05;;;;;;;18.60;11.68;;;;;;;;;;6332915;22;19983;-80
2021/11/21 13:29:08;;;;;;;20.95;12.00;;;;;;;;;;6303967;22;20007;-79
2021/11/21 13:31:39;;;;;;;22.15;12.75;;;;;;;;;;6299800;22;19991;-79
2021/11/21 13:34:11;;;;;;;19.63;12.25;;;;;;;;;;6299442;22;20056;-79
2021/11/21 13:36:44;;;;;;;19.60;11.45;;;;;;;;;;6316851;22;20034;-79
2021/11/21 13:39:15;;;;;;;16.23;11.77;;;;;;;;;;6337852;22;20066;-79
2021/11/21 13:41:54;;;;;;;17.13;11.80;;;;;;;;;;6365450;22;19993;-78
2021/11/21 13:44:23;;;;;;;18.05;11.82;;;;;;;;;;6341251;22;20003;-79
2021/11/21 13:46:50;;;;;;;22.27;12.65;;;;;;;;;;6340809;22;19987;-78
2021/11/21 13:49:17;;;;;;;19.23;12.75;;;;;;;;;;6340660;22;19986;-79
2021/11/21 13:51:43;;;;;;;18.60;13.40;;;;;;;;;;6340780;22;20007;-80
2021/11/21 13:54:10;;;;;;;20.42;13.35;;;;;;;;;;6367011;22;19994;-80
2021/11/21 13:56:43;;;;;;;21.25;13.00;;;;;;;;;;6366541;22;20003;-79
2021/11/21 13:59:13;;;;;;;22.50;14.00;;;;;;;;;;6366935;22;19995;-80
2021/11/21 14:01:44;;;;;;;23.75;13.90;;;;;;;;;;6338968;22;20444;-79
2021/11/21 14:04:10;;;;;;;20.75;13.15;;;;;;;;;;6361555;22;20002;-78
2021/11/21 14:06:36;;;;;;;21.20;13.45;;;;;;;;;;6338281;22;20050;-79
2021/11/21 14:09:09;;;;;;;19.08;12.73;;;;;;;;;;6339559;22;19991;-79
2021/11/21 14:11:38;;;;;;;19.52;12.57;;;;;;;;;;6362956;22;19990;-78
2021/11/21 14:14:21;;;;;;;20.60;13.20;;;;;;;;;;6356080;22;19999;-80
2021/11/21 14:17:04;;;;;;;23.67;12.75;;;;;;;;;;6366156;22;20082;-78
2021/11/21 14:19:35;;;;;;;22.58;13.88;;;;;;;;;;6334888;22;20029;-78
2021/11/21 14:22:04;;;;;;;22.65;13.70;;;;;;;;;;6365113;22;19994;-79
2021/11/21 14:24:30;;;;;;;22.02;14.57;;;;;;;;;;6336619;22;20038;-79
2021/11/21 14:27:13;;;;;;;23.92;14.13;;;;;;;;;;6365197;22;20019;-78
2021/11/21 14:29:43;;;;;;;25.98;14.25;;;;;;;;;;6337861;22;19987;-79
2021/11/21 14:32:17;;;;;;;24.17;13.95;;;;;;;;;;6361178;22;20050;-79
2021/11/21 14:34:44;;;;;;;23.15;13.98;;;;;;;;;;6335484;22;20072;-79
2021/11/21 14:37:18;;;;;;;23.75;13.32;;;;;;;;;;6354465;22;20015;-79
2021/11/21 14:39:45;;;;;;;28.02;14.32;;;;;;;;;;6306465;22;20011;-79
2021/11/21 14:42:11;;;;;;;24.48;16.45;;;;;;;;;;6333310;22;20003;-78
2021/11/21 14:44:40;;;;;;;30.45;19.80;;;;;;;;;;6333211;22;20050;-80
2021/11/21 14:47:32;;;;;;;35.47;22.38;;;;;;;;;;6310250;22;20006;-79
2021/11/21 14:53:07;;;;;;;34.38;22.67;;;;;;;;;;6354627;22;19914;-81
2021/11/21 14:55:41;;;;;;;45.72;25.73;;;;;;;;;;6241745;23;20096;-79
2021/11/21 14:58:42;;;;;;;40.45;27.63;;;;;;;;;;6330918;22;20025;-78
2021/11/21 15:02:02;;;;;;;48.83;28.38;;;;;;;;;;6365935;22;19999;-80
2021/11/21 15:07:10;;;;;;;40.72;25.67;;;;;;;;;;6354948;22;20023;-69
2021/11/21 15:09:38;;;;;;;41.08;25.80;;;;;;;;;;6326099;22;20011;-69
2021/11/21 15:12:05;;;;;;;48.95;27.90;;;;;;;;;;6325795;22;20040;-75
2021/11/21 15:14:31;;;;;;;44.35;28.95;;;;;;;;;;6346461;22;20076;-75
2021/11/21 15:17:21;;;;;;;40.53;26.55;;;;;;;;;;6326818;22;20006;-79
2021/11/21 15:19:53;;;;;;;46.67;26.27;;;;;;;;;;6356763;22;20480;-79
2021/11/21 15:22:20;;;;;;;40.72;23.95;;;;;;;;;;6330312;22;20003;-78
2021/11/21 15:24:46;;;;;;;41.33;24.80;;;;;;;;;;6335698;22;20006;-78
2021/11/21 15:27:13;;;;;;;39.22;23.38;;;;;;;;;;6366116;22;20018;-78
2021/11/21 15:29:39;;;;;;;37.47;23.58;;;;;;;;;;6337867;22;20026;-78
2021/11/21 15:32:06;;;;;;;40.13;22.67;;;;;;;;;;6365643;22;19990;-81
2021/11/21 15:34:35;;;;;;;30.15;21.65;;;;;;;;;;6365701;22;20003;-79
2021/11/21 15:37:03;;;;;;;43.40;22.98;;;;;;;;;;6335808;22;19997;-80
2021/11/21 15:39:32;;;;;;;39.47;22.80;;;;;;;;;;6361456;22;19998;-80
2021/11/21 15:41:59;;;;;;;37.92;22.88;;;;;;;;;;6337684;22;19986;-79
2021/11/21 15:44:25;;;;;;;34.75;22.13;;;;;;;;;;6313243;22;20002;-80
2021/11/21 15:46:51;;;;;;;32.42;21.58;;;;;;;;;;6365827;22;20014;-79
2021/11/21 15:49:18;;;;;;;39.47;23.70;;;;;;;;;;6336321;22;19982;-79
2021/11/21 15:51:44;;;;;;;38.40;25.30;;;;;;;;;;6332207;22;20013;-79
2021/11/21 15:54:10;;;;;;;37.88;23.40;;;;;;;;;;6365000;22;19983;-80
2021/11/21 15:56:36;;;;;;;35.63;23.10;;;;;;;;;;6367421;22;19983;-80
2021/11/21 15:59:03;;;;;;;34.30;23.15;;;;;;;;;;6339108;22;20052;-78
2021/11/21 16:01:42;;;;;;;43.50;27.02;;;;;;;;;;6334777;22;19991;-81
2021/11/21 16:04:58;;;;;;;40.67;26.23;;;;;;;;;;6302943;22;19992;-81
2021/11/21 16:07:38;;;;;;;49.55;32.88;;;;;;;;;;6326719;22;20048;-79
2021/11/21 16:10:07;;;;;;;110.18;71.30;;;;;;;;;;6364860;22;20015;-80
2021/11/21 16:12:33;;;;;;;40.03;26.83;;;;;;;;;;6334809;22;20006;-80